createdAt,value
2023-04-13T00:01:25.361Z,9.42
2023-04-13T00:04:04.009Z,9.40
2023-04-13T00:06:39.082Z,9.39
2023-04-13T00:09:11.267Z,9.38
2023-04-13T00:11:43.326Z,9.36
2023-04-13T00:14:15.680Z,9.42
2023-04-13T00:16:47.998Z,9.43
2023-04-13T00:19:20.281Z,9.45
2023-04-13T00:21:53.979Z,9.46
2023-04-13T00:24:26.153Z,9.47
2023-04-13T00:26:58.432Z,9.46
2023-04-13T00:29:30.724Z,9.47
2023-04-13T00:32:03.022Z,9.48
2023-04-13T00:34:36.683Z,9.47
2023-04-13T00:37:08.767Z,9.45
2023-04-13T00:39:40.860Z,9.44
2023-04-13T00:42:13.154Z,9.41
2023-04-13T00:44:47.361Z,9.38
2023-04-13T00:47:26.718Z,9.34
2023-04-13T00:50:01.694Z,9.35
2023-04-13T00:52:38.330Z,9.39
2023-04-13T00:55:13.352Z,9.41
2023-04-13T00:57:45.304Z,9.39
2023-04-13T01:00:18.850Z,9.32
2023-04-13T01:02:52.806Z,9.27
2023-04-13T01:05:27.318Z,9.23
2023-04-13T01:08:09.887Z,9.20
2023-04-13T01:10:50.509Z,9.21
2023-04-13T01:13:27.270Z,9.24
2023-04-13T01:16:06.677Z,9.25
2023-04-13T01:18:45.076Z,9.26
2023-04-13T01:21:24.869Z,9.26
2023-04-13T01:24:17.083Z,9.26
2023-04-13T01:26:57.406Z,9.28
2023-04-13T01:29:31.930Z,9.30
2023-04-13T01:32:04.639Z,9.28
2023-04-13T01:34:38.399Z,9.30
2023-04-13T01:37:13.565Z,9.32
2023-04-13T01:42:26.854Z,9.29
2023-04-13T01:45:00.206Z,9.28
2023-04-13T01:47:34.545Z,9.27
2023-04-13T01:50:34.828Z,9.25
2023-04-13T01:53:20.666Z,9.23
2023-04-13T01:55:53.322Z,9.20
2023-04-13T01:58:33.713Z,9.18
2023-04-13T02:01:11.089Z,9.20
2023-04-13T02:03:43.714Z,9.27
2023-04-13T02:06:16.104Z,9.29
2023-04-13T02:08:50.501Z,9.31
2023-04-13T02:11:28.568Z,9.33
2023-04-13T02:14:00.901Z,9.31
2023-04-13T02:16:33.359Z,9.31
2023-04-13T02:19:05.728Z,9.30
2023-04-13T02:21:38.543Z,9.28
2023-04-13T02:24:11.855Z,9.27
2023-04-13T02:26:44.094Z,9.26
2023-04-13T02:29:16.409Z,9.25
2023-04-13T02:31:50.805Z,9.24
2023-04-13T02:34:23.059Z,9.25
2023-04-13T02:36:55.863Z,9.33
2023-04-13T02:39:28.711Z,9.35
2023-04-13T02:42:02.434Z,9.37
2023-04-13T02:44:35.267Z,9.39
2023-04-13T02:47:08.435Z,9.40
2023-04-13T02:49:41.443Z,9.42
2023-04-13T02:52:23.359Z,9.45
2023-04-13T02:55:16.877Z,9.43
2023-04-13T02:57:54.636Z,9.41
2023-04-13T03:00:28.760Z,9.37
2023-04-13T03:03:04.377Z,9.35
2023-04-13T03:05:40.600Z,9.37
2023-04-13T03:08:14.773Z,9.45
2023-04-13T03:10:57.539Z,9.47
2023-04-13T03:13:31.451Z,9.50
2023-04-13T03:16:04.867Z,9.50
2023-04-13T03:18:37.535Z,9.47
2023-04-13T03:21:10.602Z,9.47
2023-04-13T03:23:51.708Z,9.46
2023-04-13T03:26:25.293Z,9.46
2023-04-13T03:28:58.076Z,9.45
2023-04-13T03:31:31.547Z,9.45
2023-04-13T03:34:03.882Z,9.44
2023-04-13T03:36:36.456Z,9.42
2023-04-13T03:39:08.795Z,9.48
2023-04-13T03:41:42.493Z,9.49
2023-04-13T03:44:14.989Z,9.49
2023-04-13T03:46:47.267Z,9.50
2023-04-13T03:49:27.297Z,9.49
2023-04-13T03:52:00.111Z,9.49
2023-04-13T03:54:32.948Z,9.46
2023-04-13T03:57:05.338Z,9.41
2023-04-13T03:59:38.428Z,9.38
2023-04-13T04:02:11.119Z,9.34
2023-04-13T04:04:45.173Z,9.30
2023-04-13T04:07:23.208Z,9.28
2023-04-13T04:09:55.762Z,9.29
2023-04-13T04:12:28.781Z,9.33
2023-04-13T04:15:00.989Z,9.34
2023-04-13T04:17:34.875Z,9.37
2023-04-13T04:20:10.214Z,9.40
2023-04-13T04:22:44.940Z,9.43
2023-04-13T04:25:22.063Z,9.41
2023-04-13T04:27:57.876Z,9.43
2023-04-13T04:30:33.964Z,9.44
2023-04-13T04:33:07.414Z,9.44
2023-04-13T04:35:50.293Z,9.39
2023-04-13T04:38:24.493Z,9.35
2023-04-13T04:40:57.921Z,9.33
2023-04-13T04:43:32.297Z,9.33
2023-04-13T04:46:05.074Z,9.34
2023-04-13T04:48:39.249Z,9.40
2023-04-13T04:51:11.755Z,9.43
2023-04-13T04:53:44.274Z,9.47
2023-04-13T04:56:16.404Z,9.48
2023-04-13T04:58:52.818Z,9.47
2023-04-13T05:01:27.569Z,9.47
2023-04-13T05:04:08.387Z,9.49
2023-04-13T05:06:44.776Z,9.50
2023-04-13T05:09:20.732Z,9.50
2023-04-13T05:11:56.437Z,9.48
2023-04-13T05:14:28.581Z,9.47
2023-04-13T05:17:01.590Z,9.47
2023-04-13T05:19:38.612Z,9.49
2023-04-13T05:22:23.990Z,9.56
2023-04-13T05:25:01.746Z,9.59
2023-04-13T05:27:38.328Z,9.62
2023-04-13T05:30:12.570Z,9.65
2023-04-13T05:32:45.543Z,9.65
2023-04-13T05:35:17.813Z,9.67
2023-04-13T05:37:50.437Z,9.68
2023-04-13T05:40:29.093Z,9.68
2023-04-13T05:43:03.467Z,9.68
2023-04-13T05:45:38.196Z,9.70
2023-04-13T05:48:17.031Z,9.72
2023-04-13T05:50:50.210Z,9.73
2023-04-13T05:53:23.575Z,9.79
2023-04-13T05:55:59.343Z,9.94
2023-04-13T05:58:31.854Z,10.03
2023-04-13T06:01:24.436Z,10.12
2023-04-13T06:03:58.110Z,10.16
2023-04-13T06:06:30.564Z,10.17
2023-04-13T06:09:05.394Z,10.22
2023-04-13T06:11:37.977Z,10.31
2023-04-13T06:14:10.201Z,10.41
2023-04-13T06:16:42.286Z,10.49
2023-04-13T06:19:14.922Z,10.56
2023-04-13T06:21:47.111Z,10.62
2023-04-13T06:24:19.590Z,10.69
2023-04-13T06:26:52.411Z,10.78
2023-04-13T06:29:24.602Z,10.89
2023-04-13T06:32:04.557Z,10.98
2023-04-13T06:34:36.990Z,11.08
2023-04-13T06:37:09.812Z,11.15
2023-04-13T06:39:50.168Z,11.24
2023-04-13T06:42:22.451Z,11.32
2023-04-13T06:45:09.323Z,11.44
2023-04-13T06:47:44.912Z,11.61
2023-04-13T06:50:18.326Z,11.74
2023-04-13T06:52:51.638Z,11.85
2023-04-13T06:55:25.099Z,11.97
2023-04-13T06:57:57.486Z,12.08
2023-04-13T07:00:30.580Z,12.18
2023-04-13T07:03:04.918Z,12.26
2023-04-13T07:05:38.983Z,12.32
2023-04-13T07:08:16.073Z,12.37
2023-04-13T07:10:53.574Z,12.41
2023-04-13T07:13:32.592Z,12.47
2023-04-13T07:16:05.380Z,12.51
2023-04-13T07:18:39.966Z,12.57
2023-04-13T07:21:12.598Z,12.66
2023-04-13T07:24:04.115Z,12.76
2023-04-13T07:26:36.465Z,12.83
2023-04-13T07:29:13.580Z,12.88
2023-04-13T07:31:48.744Z,12.94
2023-04-13T07:34:22.048Z,13.02
2023-04-13T07:36:54.681Z,13.12
2023-04-13T07:39:27.996Z,13.22
2023-04-13T07:42:00.276Z,13.36
2023-04-13T07:44:39.610Z,13.51
2023-04-13T07:47:14.213Z,13.62
2023-04-13T07:49:47.570Z,13.71
2023-04-13T07:52:22.864Z,13.83
2023-04-13T07:54:56.452Z,13.92
2023-04-13T07:57:32.838Z,14.03
2023-04-13T08:00:06.705Z,14.14
2023-04-13T08:02:46.208Z,14.26
2023-04-13T08:05:22.994Z,14.35
2023-04-13T08:07:55.947Z,14.42
2023-04-13T08:10:28.321Z,14.48
2023-04-13T08:13:01.282Z,14.54
2023-04-13T08:15:33.609Z,14.61
2023-04-13T08:18:06.763Z,14.73
2023-04-13T08:20:39.036Z,14.86
2023-04-13T08:23:12.537Z,14.96
2023-04-13T08:25:45.693Z,15.06
2023-04-13T08:28:20.657Z,15.13
2023-04-13T08:30:52.868Z,15.22
2023-04-13T08:33:25.116Z,15.25
2023-04-13T08:35:57.248Z,15.27
2023-04-13T08:38:29.655Z,15.31
2023-04-13T08:41:03.557Z,15.34
2023-04-13T08:43:37.718Z,15.33
2023-04-13T08:46:11.501Z,15.30
2023-04-13T08:49:05.364Z,15.22
2023-04-13T08:51:47.521Z,15.18
2023-04-13T08:54:19.708Z,15.21
2023-04-13T08:56:52.113Z,15.27
2023-04-13T08:59:29.374Z,15.34
2023-04-13T09:02:06.872Z,15.38
2023-04-13T09:04:46.160Z,15.40
2023-04-13T09:07:26.702Z,15.35
2023-04-13T09:10:01.669Z,15.30
2023-04-13T09:12:34.280Z,15.27
2023-04-13T09:15:09.238Z,15.27
2023-04-13T09:17:48.508Z,15.28
2023-04-13T09:20:23.246Z,15.31
2023-04-13T09:22:55.487Z,15.34
2023-04-13T09:25:29.425Z,15.35
2023-04-13T09:28:02.144Z,15.33
2023-04-13T09:30:35.546Z,15.32
2023-04-13T09:33:10.032Z,15.31
2023-04-13T09:35:42.426Z,15.30
2023-04-13T09:38:16.686Z,15.32
2023-04-13T09:40:54.556Z,15.35
2023-04-13T09:43:37.791Z,15.39
2023-04-13T09:46:15.084Z,15.41
2023-04-13T09:48:47.605Z,15.40
2023-04-13T09:51:20.926Z,15.41
2023-04-13T09:53:53.830Z,15.45
2023-04-13T09:56:27.325Z,15.49
2023-04-13T09:58:59.841Z,15.51
2023-04-13T10:01:32.382Z,15.55
2023-04-13T10:04:07.850Z,15.61
2023-04-13T10:06:43.463Z,15.66
2023-04-13T10:09:16.189Z,15.70
2023-04-13T10:11:51.540Z,15.75
2023-04-13T10:14:27.064Z,15.72
2023-04-13T10:17:25.084Z,15.59
2023-04-13T10:20:00.991Z,15.46
2023-04-13T10:22:33.222Z,15.37
2023-04-13T10:25:09.592Z,15.28
2023-04-13T10:27:44.880Z,15.27
2023-04-13T10:30:19.566Z,15.44
2023-04-13T10:32:50.481Z,15.58
2023-04-13T10:35:22.689Z,15.69
2023-04-13T10:38:00.741Z,15.78
2023-04-13T10:40:42.712Z,15.85
2023-04-13T10:43:25.498Z,15.88
2023-04-13T10:46:09.296Z,15.84
2023-04-13T10:48:43.538Z,15.84
2023-04-13T10:51:15.818Z,16.04
2023-04-13T10:53:49.798Z,16.25
2023-04-13T10:56:22.000Z,16.33
2023-04-13T10:58:57.093Z,16.44
2023-04-13T11:01:30.833Z,16.69
2023-04-13T11:04:09.873Z,16.91
2023-04-13T11:06:44.731Z,16.95
2023-04-13T11:09:17.325Z,16.91
2023-04-13T11:11:54.137Z,16.89
2023-04-13T11:14:26.543Z,16.77
2023-04-13T11:16:58.948Z,16.63
2023-04-13T11:19:31.098Z,16.48
2023-04-13T11:22:03.223Z,16.37
2023-04-13T11:24:35.986Z,16.34
2023-04-13T11:27:17.145Z,16.32
2023-04-13T11:29:58.010Z,16.23
2023-04-13T11:32:30.181Z,16.12
2023-04-13T11:35:12.162Z,16.03
2023-04-13T11:37:47.091Z,16.00
2023-04-13T11:40:26.040Z,16.08
2023-04-13T11:43:01.211Z,16.24
2023-04-13T11:45:33.785Z,16.35
2023-04-13T11:48:07.926Z,16.53
2023-04-13T11:50:41.321Z,16.76
2023-04-13T11:53:14.560Z,17.00
2023-04-13T11:55:53.229Z,17.22
2023-04-13T11:58:27.415Z,17.39
2023-04-13T12:01:03.105Z,17.45
2023-04-13T12:03:57.098Z,17.46
2023-04-13T12:06:36.268Z,17.46
2023-04-13T12:09:13.425Z,17.46
2023-04-13T12:12:08.192Z,17.39
2023-04-13T12:15:04.786Z,17.37
2023-04-13T12:17:49.992Z,17.46
2023-04-13T12:20:35.090Z,17.59
2023-04-13T12:23:22.452Z,17.71
2023-04-13T12:26:00.578Z,17.86
2023-04-13T12:28:34.752Z,18.05
2023-04-13T12:31:09.975Z,18.25
2023-04-13T12:33:42.545Z,18.38
2023-04-13T12:36:14.600Z,18.43
2023-04-13T12:38:46.968Z,18.44
2023-04-13T12:41:19.103Z,18.46
2023-04-13T12:43:51.214Z,18.46
2023-04-13T12:46:25.202Z,18.44
2023-04-13T12:48:57.668Z,18.41
2023-04-13T12:51:31.572Z,18.34
2023-04-13T12:54:03.886Z,18.22
2023-04-13T12:56:36.104Z,18.13
2023-04-13T12:59:08.586Z,18.10
2023-04-13T13:01:40.866Z,18.06
2023-04-13T13:04:13.159Z,18.02
2023-04-13T13:06:45.873Z,18.02
2023-04-13T13:09:18.453Z,18.03
2023-04-13T13:11:50.713Z,18.00
2023-04-13T13:14:22.894Z,17.98
2023-04-13T13:16:54.993Z,17.98
2023-04-13T13:19:27.201Z,18.02
2023-04-13T13:21:59.908Z,18.06
2023-04-13T13:24:32.403Z,18.07
2023-04-13T13:29:39.867Z,18.04
2023-04-13T13:32:12.105Z,17.97
2023-04-13T13:34:44.234Z,17.89
2023-04-13T13:37:16.363Z,17.82
2023-04-13T13:39:48.670Z,17.76
2023-04-13T13:42:21.145Z,17.73
2023-04-13T13:44:53.399Z,17.66
2023-04-13T13:47:25.789Z,17.55
2023-04-13T13:49:58.043Z,17.45
2023-04-13T13:52:41.677Z,17.31
2023-04-13T13:55:20.553Z,17.17
2023-04-13T13:57:52.727Z,17.04
2023-04-13T14:00:26.013Z,16.96
2023-04-13T14:02:58.334Z,16.91
2023-04-13T14:05:30.564Z,16.87
2023-04-13T14:08:02.713Z,16.85
2023-04-13T14:10:35.999Z,16.86
2023-04-13T14:13:08.174Z,16.91
2023-04-13T14:15:40.429Z,16.98
2023-04-13T14:18:12.725Z,17.03
2023-04-13T14:20:44.965Z,17.02
2023-04-13T14:23:17.213Z,16.99
2023-04-13T14:25:49.636Z,16.93
2023-04-13T14:28:21.878Z,16.91
2023-04-13T14:30:54.066Z,16.95
2023-04-13T14:33:26.540Z,16.97
2023-04-13T14:35:58.756Z,16.98
2023-04-13T14:38:30.885Z,16.96
2023-04-13T14:41:03.065Z,16.90
2023-04-13T14:43:35.243Z,16.83
2023-04-13T14:46:07.676Z,16.73
2023-04-13T14:48:40.016Z,16.67
2023-04-13T14:51:18.553Z,16.67
2023-04-13T14:53:54.258Z,16.71
2023-04-13T14:56:27.801Z,16.76
2023-04-13T14:59:00.488Z,16.80
2023-04-13T15:01:33.117Z,16.78
2023-04-13T15:04:05.752Z,16.76
2023-04-13T15:06:40.246Z,16.74
2023-04-13T15:09:13.110Z,16.75
2023-04-13T15:11:45.752Z,16.75
2023-04-13T15:14:17.907Z,16.75
2023-04-13T15:16:50.012Z,16.75
2023-04-13T15:19:22.201Z,16.73
2023-04-13T15:21:54.352Z,16.73
2023-04-13T15:24:26.563Z,16.69
2023-04-13T15:26:58.870Z,16.64
2023-04-13T15:29:31.084Z,16.59
2023-04-13T15:32:03.305Z,16.54
2023-04-13T15:34:35.800Z,16.48
2023-04-13T15:37:07.982Z,16.42
2023-04-13T15:39:40.271Z,16.37
2023-04-13T15:42:13.085Z,16.34
2023-04-13T15:44:45.588Z,16.33
2023-04-13T15:47:17.820Z,16.30
2023-04-13T15:49:49.932Z,16.29
2023-04-13T15:52:22.279Z,16.24
2023-04-13T15:54:55.236Z,16.16
2023-04-13T15:57:27.401Z,16.10
2023-04-13T15:59:59.444Z,16.05
2023-04-13T16:02:32.393Z,16.01
2023-04-13T16:05:05.088Z,15.96
2023-04-13T16:07:37.282Z,15.92
2023-04-13T16:10:17.503Z,15.89
2023-04-13T16:12:50.169Z,15.85
2023-04-13T16:15:23.018Z,15.82
2023-04-13T16:17:57.111Z,15.79
2023-04-13T16:20:29.923Z,15.77
2023-04-13T16:23:04.994Z,15.73
2023-04-13T16:25:37.689Z,15.69
2023-04-13T16:28:10.854Z,15.64
2023-04-13T16:30:42.970Z,15.60
2023-04-13T16:33:15.164Z,15.56
2023-04-13T16:35:47.421Z,15.52
2023-04-13T16:38:19.653Z,15.48
2023-04-13T16:40:51.842Z,15.44
2023-04-13T16:43:24.026Z,15.41
2023-04-13T16:45:56.096Z,15.37
2023-04-13T16:48:29.484Z,15.34
2023-04-13T16:51:02.764Z,15.31
2023-04-13T16:53:34.959Z,15.27
2023-04-13T16:56:09.089Z,15.22
2023-04-13T16:58:41.388Z,15.17
2023-04-13T17:01:13.663Z,15.11
2023-04-13T17:03:45.883Z,15.07
2023-04-13T17:06:18.107Z,15.02
2023-04-13T17:08:50.602Z,14.98
2023-04-13T17:11:23.651Z,14.93
2023-04-13T17:13:56.108Z,14.87
2023-04-13T17:16:29.636Z,14.82
2023-04-13T17:19:02.309Z,14.78
2023-04-13T17:21:34.920Z,14.72
2023-04-13T17:24:09.204Z,14.68
2023-04-13T17:26:41.644Z,14.63
2023-04-13T17:29:13.873Z,14.59
2023-04-13T17:31:46.162Z,14.56
2023-04-13T17:34:18.522Z,14.52
2023-04-13T17:36:51.877Z,14.48
2023-04-13T17:39:24.591Z,14.44
2023-04-13T17:41:57.114Z,14.40
2023-04-13T17:44:29.226Z,14.36
2023-04-13T17:47:01.455Z,14.33
2023-04-13T17:49:34.428Z,14.27
2023-04-13T17:52:06.606Z,14.22
2023-04-13T17:54:40.629Z,14.16
2023-04-13T17:57:13.360Z,14.11
2023-04-13T17:59:46.820Z,14.06
2023-04-13T18:02:20.340Z,14.01
2023-04-13T18:04:52.770Z,13.96
2023-04-13T18:07:26.424Z,13.91
2023-04-13T18:09:58.581Z,13.85
2023-04-13T18:12:30.745Z,13.80
2023-04-13T18:15:03.241Z,13.75
2023-04-13T18:17:36.792Z,13.70
2023-04-13T18:20:11.244Z,13.65
2023-04-13T18:22:43.456Z,13.62
2023-04-13T18:25:15.829Z,13.58
2023-04-13T18:27:48.153Z,13.53
2023-04-13T18:30:20.426Z,13.50
2023-04-13T18:32:52.793Z,13.46
2023-04-13T18:35:24.894Z,13.42
2023-04-13T18:37:57.660Z,13.39
2023-04-13T18:40:30.219Z,13.38
2023-04-13T18:43:02.756Z,13.35
2023-04-13T18:45:35.006Z,13.31
2023-04-13T18:48:09.929Z,13.28
2023-04-13T18:50:42.244Z,13.23
2023-04-13T18:53:14.376Z,13.20
2023-04-13T18:55:51.268Z,13.24
2023-04-13T18:58:23.686Z,13.23
2023-04-13T19:00:56.273Z,13.21
2023-04-13T19:03:28.782Z,13.22
2023-04-13T19:06:01.277Z,13.24
2023-04-13T19:08:33.599Z,13.26
2023-04-13T19:11:06.057Z,13.29
2023-04-13T19:13:38.582Z,13.32
2023-04-13T19:16:11.334Z,13.35
2023-04-13T19:18:43.617Z,13.40
2023-04-13T19:21:18.518Z,13.43
2023-04-13T19:23:50.815Z,13.47
2023-04-13T19:26:23.128Z,13.51
2023-04-13T19:28:57.604Z,13.54
2023-04-13T19:31:29.972Z,13.58
2023-04-13T19:34:02.666Z,13.63
2023-04-13T19:36:37.312Z,13.67
2023-04-13T19:39:10.258Z,13.68
2023-04-13T19:41:42.898Z,13.70
2023-04-13T19:44:16.992Z,13.71
2023-04-13T19:46:49.752Z,13.71
2023-04-13T19:49:22.190Z,13.71
2023-04-13T19:51:54.643Z,13.72
2023-04-13T19:54:27.314Z,13.72
2023-04-13T19:56:59.869Z,13.73
2023-04-13T19:59:32.461Z,13.75
2023-04-13T20:02:05.225Z,13.76
2023-04-13T20:04:38.902Z,13.77
2023-04-13T20:07:11.526Z,13.75
2023-04-13T20:09:43.872Z,13.73
2023-04-13T20:12:16.759Z,13.71
2023-04-13T20:14:49.607Z,13.71
2023-04-13T20:17:22.030Z,13.73
2023-04-13T20:19:55.507Z,13.76
2023-04-13T20:22:28.341Z,13.80
2023-04-13T20:25:00.833Z,13.84
2023-04-13T20:27:34.380Z,13.86
2023-04-13T20:30:09.487Z,13.88
2023-04-13T20:32:42.023Z,13.91
2023-04-13T20:35:15.193Z,13.92
2023-04-13T20:37:47.663Z,13.93
2023-04-13T20:40:27.024Z,13.94
2023-04-13T20:43:00.114Z,13.95
2023-04-13T20:45:32.839Z,13.95
2023-04-13T20:50:41.804Z,13.93
2023-04-13T20:53:15.118Z,13.91
2023-04-13T20:55:48.268Z,13.90
2023-04-13T20:58:21.231Z,13.89
2023-04-13T21:00:53.819Z,13.89
2023-04-13T21:03:32.011Z,13.89
2023-04-13T21:06:04.784Z,13.88
2023-04-13T21:08:37.238Z,13.87
2023-04-13T21:11:09.661Z,13.84
2023-04-13T21:13:42.115Z,13.82
2023-04-13T21:16:15.152Z,13.79
2023-04-13T21:18:47.866Z,13.78
2023-04-13T21:21:23.372Z,13.75
2023-04-13T21:23:56.344Z,13.72
2023-04-13T21:26:29.080Z,13.70
2023-04-13T21:29:01.611Z,13.67
2023-04-13T21:31:34.150Z,13.64
2023-04-13T21:34:06.616Z,13.64
2023-04-13T21:39:14.588Z,13.57
2023-04-13T21:41:47.190Z,13.54
2023-04-13T21:44:29.249Z,13.51
2023-04-13T21:47:01.943Z,13.49
2023-04-13T21:49:34.297Z,13.46
2023-04-13T21:52:06.606Z,13.43
2023-04-13T21:54:38.986Z,13.43
2023-04-13T21:57:11.371Z,13.42
2023-04-13T21:59:44.290Z,13.40
2023-04-13T22:02:16.833Z,13.39
2023-04-13T22:04:49.256Z,13.39
2023-04-13T22:07:28.602Z,13.36
2023-04-13T22:10:12.773Z,13.31
2023-04-13T22:12:45.074Z,13.30
2023-04-13T22:15:17.501Z,13.26
2023-04-13T22:17:49.856Z,13.24
2023-04-13T22:20:22.197Z,13.22
2023-04-13T22:22:54.472Z,13.18
2023-04-13T22:25:28.105Z,13.15
2023-04-13T22:28:00.421Z,13.12
2023-04-13T22:30:32.944Z,13.10
2023-04-13T22:33:05.385Z,13.07
2023-04-13T22:35:38.451Z,13.06
2023-04-13T22:38:11.299Z,13.03
2023-04-13T22:40:43.631Z,13.00
2023-04-13T22:43:16.353Z,12.98
2023-04-13T22:45:48.723Z,12.97
2023-04-13T22:48:21.408Z,12.94
2023-04-13T22:50:53.945Z,12.89
2023-04-13T22:53:27.251Z,12.85
2023-04-13T22:56:00.914Z,12.82
2023-04-13T22:58:33.433Z,12.79
2023-04-13T23:01:06.124Z,12.78
2023-04-13T23:03:38.606Z,12.76
2023-04-13T23:06:11.308Z,12.75
2023-04-13T23:08:43.592Z,12.73
2023-04-13T23:11:16.080Z,12.71
2023-04-13T23:13:48.460Z,12.72
2023-04-13T23:16:20.832Z,12.72
2023-04-13T23:18:53.299Z,12.71
2023-04-13T23:21:26.559Z,12.69
2023-04-13T23:23:58.957Z,12.68
2023-04-13T23:26:31.313Z,12.67
2023-04-13T23:29:03.817Z,12.66
2023-04-13T23:31:36.416Z,12.64
2023-04-13T23:34:08.756Z,12.60
2023-04-13T23:36:41.349Z,12.54
2023-04-13T23:39:13.679Z,12.52
2023-04-13T23:41:46.081Z,12.50
2023-04-13T23:44:18.411Z,12.48
2023-04-13T23:46:50.870Z,12.47
2023-04-13T23:49:23.867Z,12.48
2023-04-13T23:51:56.281Z,12.47
2023-04-13T23:54:28.674Z,12.45
2023-04-13T23:57:01.735Z,12.44
2023-04-13T23:59:34.167Z,12.44
